createdAt,value
2022-11-13T00:07:14.904Z,9.81
2022-11-13T00:17:35.647Z,9.79
2022-11-13T00:27:56.040Z,9.80
2022-11-13T00:38:16.504Z,9.80
2022-11-13T00:48:37.033Z,9.77
2022-11-13T00:58:57.740Z,9.76
2022-11-13T01:09:18.388Z,9.78
2022-11-13T01:19:38.829Z,9.80
2022-11-13T01:29:59.289Z,9.80
2022-11-13T01:40:19.500Z,9.78
2022-11-13T01:50:40.340Z,9.78
2022-11-13T02:01:01.253Z,9.78
2022-11-13T02:11:21.865Z,9.79
2022-11-13T02:22:10.243Z,9.78
2022-11-13T02:32:30.804Z,9.79
2022-11-13T02:42:51.109Z,9.78
2022-11-13T02:53:11.624Z,9.74
2022-11-13T03:03:56.629Z,9.72
2022-11-13T03:14:12.508Z,9.73
2022-11-13T03:24:32.710Z,9.73
2022-11-13T03:34:53.433Z,9.71
2022-11-13T03:45:13.826Z,9.69
2022-11-13T03:55:34.236Z,9.67
2022-11-13T04:05:54.647Z,9.69
2022-11-13T04:16:15.364Z,9.64
2022-11-13T04:26:35.681Z,9.60
2022-11-13T04:36:55.916Z,9.61
2022-11-13T04:47:16.547Z,9.62
2022-11-13T04:57:37.318Z,9.63
2022-11-13T05:07:57.813Z,9.61
2022-11-13T05:18:18.200Z,9.66
2022-11-13T05:28:38.872Z,9.65
2022-11-13T05:39:00.196Z,9.64
2022-11-13T05:49:20.780Z,9.64
2022-11-13T05:59:41.225Z,9.59
2022-11-13T06:10:01.775Z,9.63
2022-11-13T06:20:22.029Z,9.63
2022-11-13T06:30:42.380Z,9.63
2022-11-13T06:41:04.710Z,9.65
2022-11-13T06:51:27.720Z,9.73
2022-11-13T07:01:50.546Z,9.77
2022-11-13T07:12:10.860Z,9.78
2022-11-13T07:22:31.212Z,9.82
2022-11-13T07:32:51.833Z,9.84
2022-11-13T07:43:12.329Z,9.78
2022-11-13T07:53:32.807Z,9.73
2022-11-13T08:03:53.123Z,9.72
2022-11-13T08:14:13.462Z,9.79
2022-11-13T08:24:35.868Z,9.85
2022-11-13T08:34:56.347Z,9.89
2022-11-13T08:45:16.851Z,9.95
2022-11-13T08:55:37.173Z,10.06
2022-11-13T09:05:57.568Z,10.11
2022-11-13T09:16:17.983Z,10.25
2022-11-13T09:26:38.476Z,10.40
2022-11-13T09:36:59.054Z,10.45
2022-11-13T09:47:35.360Z,10.48
2022-11-13T09:58:22.847Z,10.44
2022-11-13T10:08:59.998Z,10.45
2022-11-13T10:19:33.909Z,10.48
2022-11-13T10:29:54.629Z,10.56
2022-11-13T10:40:29.742Z,10.59
2022-11-13T10:51:07.353Z,10.61
2022-11-13T11:01:28.691Z,10.66
2022-11-13T11:12:27.189Z,10.74
2022-11-13T11:22:57.142Z,10.73
2022-11-13T11:33:42.272Z,10.78
2022-11-13T11:44:14.196Z,10.95
2022-11-13T11:54:49.413Z,11.05
2022-11-13T12:05:57.190Z,11.10
2022-11-13T12:16:25.237Z,11.07
2022-11-13T12:26:55.878Z,10.99
2022-11-13T12:37:25.747Z,11.02
2022-11-13T12:47:49.188Z,11.08
2022-11-13T12:58:23.293Z,11.03
2022-11-13T13:09:18.141Z,11.01
2022-11-13T13:19:38.582Z,11.00
2022-11-13T13:29:58.988Z,11.04
2022-11-13T13:40:37.332Z,11.09
2022-11-13T13:51:00.453Z,11.08
2022-11-13T14:01:32.343Z,11.08
2022-11-13T14:12:09.363Z,10.98
2022-11-13T14:22:31.643Z,11.00
2022-11-13T14:32:53.030Z,10.97
2022-11-13T14:43:20.077Z,10.91
2022-11-13T14:53:41.812Z,10.92
2022-11-13T15:04:02.386Z,10.93
2022-11-13T15:14:22.650Z,10.89
2022-11-13T15:24:52.707Z,10.85
2022-11-13T15:35:16.832Z,10.86
2022-11-13T15:45:41.321Z,10.85
2022-11-13T15:56:05.849Z,10.81
2022-11-13T16:06:27.550Z,10.77
2022-11-13T16:16:50.035Z,10.71
2022-11-13T16:27:14.208Z,10.66
2022-11-13T16:37:34.887Z,10.63
2022-11-13T16:48:23.424Z,10.52
2022-11-13T16:58:44.257Z,10.47
2022-11-13T17:09:04.706Z,10.39
2022-11-13T17:19:25.277Z,10.37
2022-11-13T17:29:45.705Z,10.34
2022-11-13T17:40:07.497Z,10.34
2022-11-13T17:50:28.328Z,10.35
2022-11-13T18:01:07.278Z,10.31
2022-11-13T18:11:46.226Z,10.23
2022-11-13T18:22:09.069Z,10.00
2022-11-13T18:32:38.811Z,9.89
2022-11-13T18:42:59.487Z,9.88
2022-11-13T18:53:19.912Z,9.83
2022-11-13T19:14:43.468Z,9.76
2022-11-13T19:25:04.397Z,9.74
2022-11-13T19:35:25.843Z,9.69
2022-11-13T19:45:46.558Z,9.67
2022-11-13T19:56:20.987Z,9.66
2022-11-13T20:06:41.315Z,9.65
2022-11-13T20:17:02.880Z,9.62
2022-11-13T20:27:50.468Z,9.61
2022-11-13T20:38:10.960Z,9.59
2022-11-13T20:48:31.827Z,9.53
2022-11-13T20:58:53.159Z,9.47
2022-11-13T21:09:16.791Z,9.48
2022-11-13T21:19:37.089Z,9.49
2022-11-13T21:29:57.709Z,9.36
2022-11-13T21:40:18.072Z,9.33
2022-11-13T21:50:38.513Z,9.35
2022-11-13T22:01:00.431Z,9.31
2022-11-13T22:11:21.450Z,9.29
2022-11-13T22:21:42.884Z,9.28
2022-11-13T22:32:03.793Z,9.24
2022-11-13T22:42:24.146Z,9.22
2022-11-13T22:52:44.761Z,9.22
2022-11-13T23:03:05.289Z,9.24
2022-11-13T23:13:25.598Z,9.25
2022-11-13T23:23:46.009Z,9.24
2022-11-13T23:34:06.235Z,9.20
2022-11-13T23:44:26.816Z,9.15
2022-11-13T23:54:47.030Z,9.12
